Decoded Metar for LQMO (MOSTAR in BOSNIA-HERCEGOVINA) (IATA:OMO) | Meteo·Mobile Aviation Weather
aviador You're here:

LQMO Decoded Metar

MOSTAR in BOSNIA-HERCEGOVINA
Report Time2019-03-21 20:30:00
UTC Time2019-03-21 22:12:02
Flight Rules Old
Wind140° at 03 kt
W.Decomp.*RWY 16: 2.8 kt HW 1.1 kt LCW
W.Rank140° ranks 1
Current wind is below 140° avg. (4.5)
Visibility9999 m
Phenomena:N/A
Clouds:N/A
Expected CloudBase > 4,000 ft AGL from Temp-Dew spread
CeilingNone
Temp11°C (ISA -3)
Dew Point01°C (50% RH)
AAT8.1°C
QNH1027 hPa
Density Alt-420 ft
Elevation354 ft
Report Wrong Elevation
Raw Report
METAR LQMO 212030Z 14003KT 100V190 CAVOK 11/01 Q1027=

Extra information for LQMO:More info

Metar Taf Metar & Taf Last 4 Metars F.Rules Stats Wind Profile Meteogram Temp Stats Airport Information Weather charts Add Link Nearby VenuesMetar ALERT Operation Metar Decoded Social comments